TimeCST,TemperatureF,Dew PointF,Humidity,Sea Level PressureIn,VisibilityMPH,Wind Direction,Wind SpeedMPH,Gust SpeedMPH,PrecipitationIn,Events,Conditions,WindDirDegrees,DateUTC
12:15 AM,32.0,30.2,93,29.31,1.5,Calm,Calm,-,N/A,,Light Drizzle,0,2013-01-12 06:15:00
12:35 AM,32.0,30.2,93,29.31,1.0,Calm,Calm,-,0.01,,Drizzle,0,2013-01-12 06:35:00
12:55 AM,32.0,30.2,93,29.30,0.5,Calm,Calm,-,0.02,,Heavy Drizzle,0,2013-01-12 06:55:00
1:35 AM,32.0,32.0,100,29.29,0.5,NNW,5.8,-,0.02,Rain,Light Rain,330,2013-01-12 07:35:00
1:55 AM,30.2,30.2,100,29.29,1.0,NNW,6.9,-,0.03,Snow,Light Snow,330,2013-01-12 07:55:00
2:15 AM,30.2,30.2,100,29.29,2.0,North,3.5,-,0.01,,Overcast,350,2013-01-12 08:15:00
2:35 AM,28.4,28.4,100,29.29,1.8,NNW,8.1,-,0.01,,Overcast,330,2013-01-12 08:35:00
2:55 AM,28.4,28.4,100,29.30,1.8,NNW,8.1,-,0.01,Snow,Light Snow,330,2013-01-12 08:55:00
3:15 AM,26.6,26.6,100,29.30,2.0,NNW,8.1,-,N/A,Snow,Light Snow,330,2013-01-12 09:15:00
3:35 AM,24.8,24.8,100,29.30,1.8,NNW,9.2,-,N/A,Snow,Light Snow,340,2013-01-12 09:35:00
3:55 AM,21.2,21.2,100,29.29,3.0,NNW,6.9,-,N/A,Snow,Light Snow,340,2013-01-12 09:55:00
4:15 AM,21.2,21.2,100,29.30,1.8,NNW,8.1,-,N/A,Snow,Light Snow,330,2013-01-12 10:15:00
4:35 AM,21.2,21.2,100,29.31,2.0,NW,8.1,-,N/A,Snow,Light Snow,320,2013-01-12 10:35:00
4:55 AM,21.2,19.4,93,29.33,1.5,NW,10.4,-,N/A,Snow,Light Snow,320,2013-01-12 10:55:00
5:15 AM,19.4,19.4,100,29.34,0.2,NW,6.9,-,N/A,Snow,Snow,310,2013-01-12 11:15:00
5:35 AM,17.6,17.6,100,29.35,0.2,WNW,4.6,17.3,0.01,Snow,Snow,300,2013-01-12 11:35:00
5:55 AM,15.8,15.8,100,29.36,1.0,NW,8.1,-,0.02,Snow,Light Snow,320,2013-01-12 11:55:00
6:15 AM,15.8,15.8,100,29.39,1.2,NNW,10.4,17.3,N/A,Snow,Light Snow,330,2013-01-12 12:15:00
6:35 AM,15.8,14.0,93,29.41,1.0,NW,6.9,-,N/A,Snow,Light Snow,320,2013-01-12 12:35:00
6:55 AM,14.0,12.2,93,29.44,1.0,NNW,5.8,18.4,N/A,Snow,Light Snow,330,2013-01-12 12:55:00
7:15 AM,14.0,12.2,93,29.46,1.0,NW,6.9,-,N/A,Snow,Light Snow,310,2013-01-12 13:15:00
7:35 AM,14.0,12.2,93,29.48,0.8,NW,6.9,-,N/A,Snow,Light Snow,310,2013-01-12 13:35:00
7:55 AM,12.2,12.2,100,29.50,0.8,NW,4.6,-,N/A,Snow,Light Snow,320,2013-01-12 13:55:00
8:15 AM,12.2,10.4,92,29.52,1.8,Calm,Calm,-,N/A,Snow,Light Snow,0,2013-01-12 14:15:00
8:35 AM,12.2,10.4,92,29.54,1.0,NW,9.2,-,N/A,Snow,Light Snow,320,2013-01-12 14:35:00
8:55 AM,10.4,10.4,100,29.57,0.5,West,4.6,-,N/A,Snow,Snow,280,2013-01-12 14:55:00
9:15 AM,10.4,8.6,92,29.59,1.8,West,5.8,-,N/A,Snow,Light Snow,270,2013-01-12 15:15:00
9:35 AM,10.4,8.6,92,29.60,2.5,WNW,5.8,-,N/A,Snow,Light Snow,300,2013-01-12 15:35:00
9:55 AM,10.4,8.6,92,29.62,10.0,NW,6.9,-,N/A,,Overcast,320,2013-01-12 15:55:00
10:15 AM,10.4,8.6,92,29.63,4.0,NW,5.8,-,N/A,,Overcast,310,2013-01-12 16:15:00
10:35 AM,10.4,8.6,92,29.64,5.0,NW,6.9,-,N/A,,Overcast,310,2013-01-12 16:35:00
10:55 AM,10.4,8.6,92,29.66,2.5,NW,4.6,-,N/A,Snow,Light Snow,320,2013-01-12 16:55:00
11:15 AM,10.4,8.6,92,29.67,3.0,NW,6.9,16.1,N/A,Snow,Light Snow,310,2013-01-12 17:15:00
11:35 AM,10.4,8.6,92,29.68,7.0,NNW,6.9,16.1,N/A,,Overcast,340,2013-01-12 17:35:00
11:55 AM,10.4,8.6,92,29.69,1.8,WNW,6.9,-,N/A,Snow,Light Snow,300,2013-01-12 17:55:00
12:15 PM,10.4,8.6,92,29.69,7.0,NNW,3.5,-,N/A,,Overcast,330,2013-01-12 18:15:00
12:35 PM,10.4,8.6,92,29.71,7.0,NW,5.8,-,N/A,,Overcast,310,2013-01-12 18:35:00
12:55 PM,10.4,8.6,92,29.72,0.8,NW,5.8,18.4,N/A,Snow,Light Snow,310,2013-01-12 18:55:00
1:15 PM,10.4,8.6,92,29.74,1.2,NW,6.9,-,N/A,Snow,Light Snow,320,2013-01-12 19:15:00
1:35 PM,10.4,8.6,92,29.76,1.0,NW,6.9,-,N/A,Snow,Light Snow,320,2013-01-12 19:35:00
1:55 PM,10.4,8.6,92,29.77,0.5,NW,4.6,-,N/A,Snow,Light Snow,310,2013-01-12 19:55:00
2:15 PM,10.4,8.6,92,29.79,2.0,NW,8.1,-,N/A,Snow,Light Snow,320,2013-01-12 20:15:00
2:35 PM,10.4,8.6,92,29.80,5.0,NW,6.9,-,N/A,Snow,Light Snow,320,2013-01-12 20:35:00
2:55 PM,10.4,8.6,92,29.81,7.0,NW,4.6,-,N/A,Snow,Light Snow,310,2013-01-12 20:55:00
3:15 PM,10.4,8.6,92,29.83,7.0,NW,6.9,-,N/A,,Overcast,320,2013-01-12 21:15:00
3:35 PM,8.6,6.8,92,29.84,7.0,NW,4.6,-,N/A,,Overcast,310,2013-01-12 21:35:00
3:55 PM,8.6,6.8,92,29.85,7.0,NW,4.6,-,N/A,,Overcast,310,2013-01-12 21:55:00
4:15 PM,8.6,6.8,92,29.86,5.0,NW,4.6,-,N/A,,Overcast,320,2013-01-12 22:15:00
4:35 PM,8.6,6.8,92,29.87,7.0,NW,4.6,-,N/A,,Overcast,320,2013-01-12 22:35:00
4:55 PM,8.6,6.8,92,29.87,7.0,NW,3.5,-,N/A,,Overcast,310,2013-01-12 22:55:00
5:15 PM,8.6,6.8,92,29.88,10.0,NW,5.8,-,N/A,,Overcast,320,2013-01-12 23:15:00
5:35 PM,6.8,6.8,100,29.89,10.0,NW,3.5,-,N/A,,Overcast,320,2013-01-12 23:35:00
5:55 PM,6.8,6.8,100,29.90,10.0,NW,6.9,-,N/A,,Overcast,320,2013-01-12 23:55:00
6:15 PM,6.8,5.0,92,29.91,10.0,WNW,4.6,-,N/A,,Overcast,300,2013-01-13 00:15:00
6:35 PM,6.8,5.0,92,29.92,10.0,NW,3.5,-,N/A,,Overcast,310,2013-01-13 00:35:00
6:55 PM,6.8,3.2,85,29.93,10.0,NW,6.9,-,N/A,,Overcast,320,2013-01-13 00:55:00
7:15 PM,6.8,3.2,85,29.93,4.0,NW,6.9,-,N/A,,Overcast,320,2013-01-13 01:15:00
7:35 PM,5.0,3.2,92,29.94,4.0,Calm,Calm,-,N/A,,Overcast,0,2013-01-13 01:35:00
7:55 PM,5.0,3.2,92,29.95,3.0,NW,3.5,-,N/A,,Overcast,310,2013-01-13 01:55:00
8:15 PM,5.0,3.2,92,29.94,5.0,NW,8.1,-,N/A,,Overcast,320,2013-01-13 02:15:00
8:35 PM,3.2,1.4,92,29.94,7.0,NW,5.8,-,N/A,,Mostly Cloudy,320,2013-01-13 02:35:00
8:55 PM,3.2,1.4,92,29.94,10.0,NW,4.6,-,N/A,,Scattered Clouds,320,2013-01-13 02:55:00
9:15 PM,1.4,-0.4,92,29.95,10.0,Calm,Calm,-,N/A,,Clear,0,2013-01-13 03:15:00
9:35 PM,-0.4,-2.2,92,29.97,10.0,Calm,Calm,-,N/A,,Clear,0,2013-01-13 03:35:00
9:55 PM,-0.4,-2.2,92,29.98,10.0,Calm,Calm,-,N/A,,Clear,0,2013-01-13 03:55:00
10:15 PM,-0.4,-2.2,92,30.01,10.0,Calm,Calm,-,N/A,,Scattered Clouds,0,2013-01-13 04:15:00
10:35 PM,-2.2,-4.0,92,30.01,10.0,Calm,Calm,-,N/A,,Scattered Clouds,0,2013-01-13 04:35:00
11:15 PM,1.4,-2.2,85,30.04,10.0,Calm,Calm,-,N/A,,Overcast,0,2013-01-13 05:15:00
11:35 PM,1.4,-0.4,92,30.04,10.0,Calm,Calm,-,N/A,,Overcast,0,2013-01-13 05:35:00
11:55 PM,1.4,-0.4,92,30.03,7.0,Calm,Calm,-,N/A,,Overcast,0,2013-01-13 05:55:00